createdAt,value
2017-12-22T00:02:22.060Z,5.20
2017-12-22T00:04:49.525Z,5.10
2017-12-22T00:07:16.983Z,5.20
2017-12-22T00:09:44.440Z,4.90
2017-12-22T00:12:12.124Z,5.70
2017-12-22T00:14:39.619Z,5.70
2017-12-22T00:17:08.116Z,5.67
2017-12-22T00:19:35.575Z,5.50
2017-12-22T00:22:03.075Z,5.37
2017-12-22T00:24:30.519Z,5.23
2017-12-22T00:26:57.976Z,6.03
2017-12-22T00:29:25.988Z,5.40
2017-12-22T00:31:53.432Z,5.93
2017-12-22T00:34:20.879Z,5.10
2017-12-22T00:36:48.360Z,5.70
2017-12-22T00:39:15.957Z,4.77
2017-12-22T00:41:43.539Z,6.17
2017-12-22T00:44:11.002Z,6.20
2017-12-22T00:46:38.454Z,5.60
2017-12-22T00:49:05.967Z,5.60
2017-12-22T00:51:33.466Z,6.90
2017-12-22T00:54:00.974Z,6.10
2017-12-22T00:56:28.638Z,6.83
2017-12-22T00:58:56.152Z,5.80
2017-12-22T01:01:23.657Z,5.90
2017-12-22T01:03:51.111Z,5.70
2017-12-22T01:06:18.576Z,6.50
2017-12-22T01:08:46.115Z,5.70
2017-12-22T01:11:13.580Z,6.37
2017-12-22T01:13:41.036Z,7.03
2017-12-22T01:19:19.171Z,6.57
2017-12-22T01:21:46.615Z,7.30
2017-12-22T01:24:14.085Z,5.80
2017-12-22T01:26:41.569Z,7.20
2017-12-22T01:29:09.025Z,6.87
2017-12-22T01:31:36.483Z,5.90
2017-12-22T01:34:03.964Z,6.77
2017-12-22T01:36:31.411Z,6.27
2017-12-22T01:38:58.888Z,6.30
2017-12-22T01:41:26.353Z,6.17
2017-12-22T01:43:53.844Z,6.13
2017-12-22T01:46:21.296Z,6.53
2017-12-22T01:48:49.010Z,6.10
2017-12-22T01:51:16.515Z,6.03
2017-12-22T01:53:43.962Z,6.20
2017-12-22T01:56:11.427Z,5.70
2017-12-22T01:58:38.949Z,6.30
2017-12-22T02:01:06.418Z,6.10
2017-12-22T02:03:33.994Z,6.30
2017-12-22T02:06:01.409Z,6.70
2017-12-22T02:08:28.867Z,6.37
2017-12-22T02:10:56.330Z,6.13
2017-12-22T02:13:23.779Z,6.40
2017-12-22T02:15:51.230Z,7.37
2017-12-22T02:18:18.718Z,6.33
2017-12-22T02:20:46.182Z,7.20
2017-12-22T02:23:13.684Z,7.10
2017-12-22T02:25:41.123Z,6.73
2017-12-22T02:28:08.577Z,7.30
2017-12-22T02:30:36.044Z,7.47
2017-12-22T02:33:03.496Z,7.20
2017-12-22T02:35:30.975Z,7.00
2017-12-22T02:37:58.431Z,7.30
2017-12-22T02:40:25.925Z,7.20
2017-12-22T02:42:53.406Z,8.10
2017-12-22T02:45:20.860Z,7.50
2017-12-22T02:47:48.975Z,9.07
2017-12-22T02:50:16.487Z,8.50
2017-12-22T02:52:43.953Z,8.13
2017-12-22T02:55:11.412Z,9.07
2017-12-22T02:57:38.870Z,8.23
2017-12-22T03:00:06.332Z,8.47
2017-12-22T03:02:33.987Z,8.40
2017-12-22T03:05:01.444Z,9.17
2017-12-22T03:07:28.901Z,8.17
2017-12-22T03:09:56.383Z,8.33
2017-12-22T03:12:24.000Z,9.00
2017-12-22T03:14:51.474Z,8.10
2017-12-22T03:17:18.930Z,8.67
2017-12-22T03:19:46.430Z,7.87
2017-12-22T03:22:13.926Z,8.60
2017-12-22T03:24:41.596Z,7.83
2017-12-22T03:27:09.055Z,8.37
2017-12-22T03:29:36.491Z,8.10
2017-12-22T03:32:03.980Z,8.03
2017-12-22T03:34:31.459Z,7.10
2017-12-22T03:36:58.911Z,7.60
2017-12-22T03:39:26.376Z,7.20
2017-12-22T03:41:53.829Z,7.70
2017-12-22T03:44:21.283Z,7.70
2017-12-22T03:46:48.740Z,7.50
2017-12-22T03:49:16.221Z,7.50
2017-12-22T03:51:43.666Z,6.40
2017-12-22T03:54:11.124Z,7.03
2017-12-22T03:56:38.571Z,6.00
2017-12-22T03:59:06.024Z,7.00
2017-12-22T04:01:33.498Z,7.00
2017-12-22T04:04:00.944Z,6.80
2017-12-22T04:06:28.392Z,6.47
2017-12-22T04:08:55.842Z,6.40
2017-12-22T04:11:23.288Z,6.30
2017-12-22T04:13:50.740Z,6.03
2017-12-22T04:16:18.217Z,7.23
2017-12-22T04:18:45.703Z,6.63
2017-12-22T04:21:13.197Z,5.70
2017-12-22T04:23:40.669Z,7.20
2017-12-22T04:26:08.110Z,5.90
2017-12-22T04:28:35.645Z,6.53
2017-12-22T04:31:03.095Z,6.83
2017-12-22T04:33:30.576Z,5.87
2017-12-22T04:35:58.043Z,6.37
2017-12-22T04:38:26.386Z,6.50
2017-12-22T04:40:53.848Z,7.10
2017-12-22T04:43:21.351Z,6.83
2017-12-22T04:45:48.795Z,6.53
2017-12-22T04:48:16.256Z,5.77
2017-12-22T04:50:43.757Z,5.57
2017-12-22T04:53:11.247Z,6.17
2017-12-22T04:55:38.706Z,6.20
2017-12-22T04:58:06.156Z,6.00
2017-12-22T05:00:33.594Z,5.40
2017-12-22T05:03:01.048Z,4.90
2017-12-22T05:05:28.495Z,5.63
2017-12-22T05:07:55.969Z,5.67
2017-12-22T05:10:23.416Z,5.30
2017-12-22T05:12:50.859Z,4.87
2017-12-22T05:15:18.383Z,5.37
2017-12-22T05:17:45.850Z,6.00
2017-12-22T05:20:13.356Z,5.97
2017-12-22T05:22:40.816Z,5.87
2017-12-22T05:25:08.265Z,5.90
2017-12-22T05:27:35.908Z,6.00
2017-12-22T05:30:03.379Z,4.53
2017-12-22T05:32:31.230Z,6.27
2017-12-22T05:34:58.706Z,5.80
2017-12-22T05:37:26.147Z,6.57
2017-12-22T05:39:53.584Z,5.93
2017-12-22T05:42:21.079Z,5.30
2017-12-22T05:44:48.545Z,6.00
2017-12-22T05:47:16.132Z,6.67
2017-12-22T05:49:43.609Z,5.50
2017-12-22T05:52:11.119Z,6.63
2017-12-22T05:54:39.208Z,6.93
2017-12-22T05:57:06.683Z,6.87
2017-12-22T05:59:34.130Z,6.60
2017-12-22T06:02:01.678Z,6.63
2017-12-22T06:04:29.513Z,5.97
2017-12-22T06:06:56.979Z,7.03
2017-12-22T06:09:24.461Z,7.20
2017-12-22T06:11:51.970Z,6.40
2017-12-22T06:14:19.429Z,6.93
2017-12-22T06:16:46.888Z,7.37
2017-12-22T06:19:14.375Z,7.00
2017-12-22T06:21:41.882Z,6.30
2017-12-22T06:24:09.429Z,6.57
2017-12-22T06:26:37.219Z,6.20
2017-12-22T06:29:04.862Z,6.47
2017-12-22T06:31:32.388Z,6.20
2017-12-22T06:33:59.858Z,6.17
2017-12-22T06:36:28.020Z,5.87
2017-12-22T06:38:55.471Z,6.50
2017-12-22T06:41:24.362Z,5.50
2017-12-22T06:43:52.091Z,6.30
2017-12-22T06:46:19.612Z,6.50
2017-12-22T06:48:48.744Z,6.07
2017-12-22T06:51:16.620Z,6.53
2017-12-22T06:53:44.071Z,7.57
2017-12-22T06:56:11.774Z,6.20
2017-12-22T06:58:40.533Z,5.90
2017-12-22T07:01:08.178Z,6.03
2017-12-22T07:03:35.682Z,5.63
2017-12-22T07:06:03.179Z,5.03
2017-12-22T07:08:33.127Z,5.40
2017-12-22T07:11:00.591Z,7.90
2017-12-22T07:13:28.133Z,6.70
2017-12-22T07:15:55.615Z,5.60
2017-12-22T07:18:23.227Z,7.27
2017-12-22T07:20:50.817Z,8.40
2017-12-22T07:23:18.676Z,10.07
2017-12-22T07:25:46.729Z,7.07
2017-12-22T07:28:14.275Z,6.90
2017-12-22T07:30:41.783Z,6.03
2017-12-22T07:33:09.317Z,6.30
2017-12-22T07:35:36.800Z,6.43
2017-12-22T07:38:04.308Z,5.77
2017-12-22T07:40:31.844Z,6.30
2017-12-22T07:42:59.404Z,5.93
2017-12-22T07:45:26.952Z,6.23
2017-12-22T07:47:56.589Z,6.17
2017-12-22T07:50:24.108Z,5.20
2017-12-22T07:52:51.590Z,5.90
2017-12-22T07:55:19.210Z,6.87
2017-12-22T07:57:46.810Z,6.13
2017-12-22T08:00:14.444Z,6.77
2017-12-22T08:02:41.924Z,6.37
2017-12-22T08:05:09.612Z,6.10
2017-12-22T08:07:38.229Z,5.77
2017-12-22T08:10:06.894Z,6.90
2017-12-22T08:12:34.517Z,6.30
2017-12-22T08:15:02.004Z,5.40
2017-12-22T08:17:35.354Z,5.97
2017-12-22T08:20:15.955Z,5.60
2017-12-22T08:35:40.612Z,6.57
2017-12-22T08:38:08.433Z,5.53
2017-12-22T08:40:36.754Z,6.53
2017-12-22T08:43:04.249Z,5.83
2017-12-22T08:45:31.997Z,6.27
2017-12-22T08:48:00.058Z,5.60
2017-12-22T08:50:27.717Z,5.30
2017-12-22T08:52:55.360Z,6.37
2017-12-22T08:55:22.868Z,5.80
2017-12-22T08:57:50.383Z,5.57
2017-12-22T09:00:17.853Z,6.20
2017-12-22T09:02:45.378Z,8.40
2017-12-22T09:05:13.050Z,6.37
2017-12-22T09:07:40.610Z,5.50
2017-12-22T09:10:08.240Z,5.10
2017-12-22T09:12:36.294Z,5.13
2017-12-22T09:15:03.818Z,5.67
2017-12-22T09:17:31.301Z,6.57
2017-12-22T09:19:58.836Z,5.73
2017-12-22T09:22:27.094Z,5.90
2017-12-22T09:24:54.759Z,5.50
2017-12-22T09:27:22.297Z,5.80
2017-12-22T09:29:49.776Z,5.60
2017-12-22T09:32:18.381Z,5.50
2017-12-22T09:34:46.782Z,5.73
2017-12-22T09:37:14.243Z,5.93
2017-12-22T09:39:41.727Z,5.57
2017-12-22T09:42:09.191Z,4.90
2017-12-22T09:44:36.959Z,5.33
2017-12-22T09:47:04.687Z,9.30
2017-12-22T09:49:32.203Z,5.33
2017-12-22T09:52:00.828Z,6.33
2017-12-22T09:54:28.876Z,5.70
2017-12-22T09:56:56.392Z,5.10
2017-12-22T09:59:24.632Z,4.63
2017-12-22T10:01:52.122Z,6.47
2017-12-22T10:04:23.073Z,4.97
2017-12-22T10:06:50.552Z,5.10
2017-12-22T10:09:18.147Z,5.60
2017-12-22T10:11:45.617Z,5.40
2017-12-22T10:14:13.266Z,5.10
2017-12-22T10:16:43.441Z,5.07
2017-12-22T10:19:15.686Z,6.03
2017-12-22T10:21:43.515Z,5.10
2017-12-22T10:24:13.191Z,5.43
2017-12-22T10:26:40.708Z,5.47
2017-12-22T10:29:08.167Z,5.43
2017-12-22T10:31:40.313Z,5.60
2017-12-22T10:34:07.779Z,5.37
2017-12-22T10:36:35.247Z,5.87
2017-12-22T10:39:02.796Z,5.73
2017-12-22T10:41:30.457Z,5.70
2017-12-22T10:43:57.920Z,6.03
2017-12-22T10:46:25.376Z,4.90
2017-12-22T10:48:52.896Z,6.30
2017-12-22T10:51:20.456Z,6.20
2017-12-22T10:53:47.917Z,6.27
2017-12-22T10:56:15.412Z,6.20
2017-12-22T10:58:42.927Z,6.70
2017-12-22T11:01:10.754Z,5.63
2017-12-22T11:03:38.274Z,6.30
2017-12-22T11:06:05.796Z,6.67
2017-12-22T11:08:33.807Z,5.57
2017-12-22T11:11:01.381Z,5.80
2017-12-22T11:13:29.114Z,7.07
2017-12-22T11:15:56.621Z,7.60
2017-12-22T11:18:24.613Z,6.20
2017-12-22T11:20:52.135Z,6.57
2017-12-22T11:23:19.943Z,6.60
2017-12-22T11:25:47.460Z,5.90
2017-12-22T11:28:15.723Z,6.37
2017-12-22T11:30:44.522Z,7.30
2017-12-22T11:33:12.095Z,6.83
2017-12-22T11:35:40.325Z,6.20
2017-12-22T11:38:07.827Z,6.17
2017-12-22T11:40:35.326Z,5.60
2017-12-22T11:43:02.900Z,5.40
2017-12-22T11:45:30.464Z,6.20
2017-12-22T11:47:57.940Z,7.37
2017-12-22T11:50:25.419Z,6.30
2017-12-22T11:52:52.965Z,6.87
2017-12-22T11:55:20.440Z,7.50
2017-12-22T11:57:48.048Z,5.90
2017-12-22T12:00:15.550Z,6.50
2017-12-22T12:02:43.027Z,7.20
2017-12-22T12:05:10.549Z,5.90
2017-12-22T12:07:38.016Z,6.70
2017-12-22T12:10:05.561Z,7.00
2017-12-22T12:12:33.134Z,6.30
2017-12-22T12:15:00.598Z,7.43
2017-12-22T12:17:28.072Z,6.53
2017-12-22T12:19:55.575Z,7.70
2017-12-22T12:22:23.067Z,7.27
2017-12-22T12:24:50.538Z,6.70
2017-12-22T12:27:18.025Z,7.33
2017-12-22T12:29:45.982Z,7.50
2017-12-22T12:32:13.478Z,6.70
2017-12-22T12:34:41.087Z,6.67
2017-12-22T12:37:08.559Z,7.03
2017-12-22T12:39:36.039Z,7.07
2017-12-22T12:42:03.510Z,7.60
2017-12-22T12:44:31.339Z,7.00
2017-12-22T12:46:58.934Z,7.30
2017-12-22T12:49:26.587Z,7.23
2017-12-22T12:51:55.303Z,7.10
2017-12-22T12:54:22.983Z,7.80
2017-12-22T12:56:50.569Z,7.67
2017-12-22T12:59:18.032Z,6.90
2017-12-22T13:01:45.582Z,7.13
2017-12-22T13:04:13.226Z,7.70
2017-12-22T13:06:40.997Z,7.23
2017-12-22T13:09:08.566Z,6.50
2017-12-22T13:11:36.043Z,7.60
2017-12-22T13:14:03.501Z,6.60
2017-12-22T13:16:31.262Z,7.13
2017-12-22T13:18:58.717Z,7.50
2017-12-22T13:21:26.180Z,7.77
2017-12-22T13:23:53.710Z,6.67
2017-12-22T13:26:21.192Z,6.73
2017-12-22T13:28:48.672Z,7.00
2017-12-22T13:31:16.174Z,7.50
2017-12-22T13:33:43.656Z,6.47
2017-12-22T13:36:11.132Z,7.87
2017-12-22T13:38:38.616Z,7.80
2017-12-22T13:41:06.130Z,7.00
2017-12-22T13:43:33.798Z,7.90
2017-12-22T13:46:01.287Z,7.40
2017-12-22T13:48:28.839Z,6.90
2017-12-22T13:50:56.403Z,7.80
2017-12-22T13:53:23.966Z,8.30
2017-12-22T13:55:51.429Z,6.70
2017-12-22T13:58:18.936Z,7.23
2017-12-22T14:00:47.031Z,7.30
2017-12-22T14:03:15.401Z,7.90
2017-12-22T14:05:43.799Z,7.83
2017-12-22T14:08:11.344Z,7.87
2017-12-22T14:10:40.097Z,8.43
2017-12-22T14:13:08.092Z,7.60
2017-12-22T14:15:35.780Z,7.67
2017-12-22T14:18:04.596Z,7.93
2017-12-22T14:20:32.154Z,8.57
2017-12-22T14:22:59.668Z,8.87
2017-12-22T14:25:27.210Z,9.03
2017-12-22T14:27:54.703Z,8.33
2017-12-22T14:30:22.208Z,8.57
2017-12-22T14:32:49.694Z,9.13
2017-12-22T14:35:17.217Z,8.83
2017-12-22T14:37:45.675Z,9.70
2017-12-22T14:40:14.209Z,9.00
2017-12-22T14:42:42.797Z,10.00
2017-12-22T14:45:10.374Z,10.47
2017-12-22T14:47:38.752Z,9.80
2017-12-22T14:50:06.238Z,10.13
2017-12-22T14:52:34.174Z,10.07
2017-12-22T14:55:01.770Z,9.90
2017-12-22T14:57:29.239Z,10.40
2017-12-22T14:59:56.825Z,10.70
2017-12-22T15:02:24.358Z,9.70
2017-12-22T15:04:51.945Z,10.27
2017-12-22T15:07:19.489Z,11.50
2017-12-22T15:09:47.108Z,11.70
2017-12-22T15:12:14.816Z,11.30
2017-12-22T15:14:42.351Z,11.13
2017-12-22T15:17:09.934Z,11.25
2017-12-22T15:19:37.486Z,11.40
2017-12-22T15:22:04.959Z,11.83
2017-12-22T15:24:32.647Z,12.40
2017-12-22T15:27:00.193Z,12.93
2017-12-22T15:29:27.655Z,12.67
2017-12-22T15:31:55.188Z,13.60
2017-12-22T15:34:22.702Z,11.57
2017-12-22T15:36:50.443Z,13.30
2017-12-22T15:39:17.926Z,11.97
2017-12-22T15:41:46.835Z,12.60
2017-12-22T15:44:16.692Z,11.83
2017-12-22T15:58:42.687Z,10.70
2017-12-22T16:01:11.076Z,11.30
2017-12-22T16:03:40.572Z,10.53
2017-12-22T16:09:08.461Z,11.63
2017-12-22T16:11:36.692Z,11.77
2017-12-22T16:14:04.255Z,12.50
2017-12-22T16:16:31.744Z,12.80
2017-12-22T16:18:59.232Z,13.10
2017-12-22T16:21:26.753Z,13.27
2017-12-22T16:23:54.249Z,13.47
2017-12-22T16:26:21.803Z,14.10
2017-12-22T16:28:49.343Z,15.77
2017-12-22T16:31:16.894Z,16.00
2017-12-22T16:33:46.505Z,14.40
2017-12-22T16:36:14.034Z,15.60
2017-12-22T16:38:41.635Z,13.93
2017-12-22T16:41:09.368Z,14.93
2017-12-22T16:43:37.224Z,14.53
2017-12-22T16:46:04.750Z,13.30
2017-12-22T16:48:32.260Z,14.23
2017-12-22T17:02:51.965Z,15.33
2017-12-22T17:08:07.951Z,14.10
2017-12-22T17:10:35.472Z,13.80
2017-12-22T17:13:02.957Z,14.90
2017-12-22T17:15:32.492Z,13.50
2017-12-22T17:17:59.970Z,14.03
2017-12-22T17:20:27.485Z,18.43
2017-12-22T17:22:54.983Z,20.33
2017-12-22T17:25:22.500Z,19.10
2017-12-22T17:27:49.988Z,19.47
2017-12-22T17:30:17.475Z,17.77
2017-12-22T17:32:44.960Z,16.80
2017-12-22T17:35:13.380Z,17.47
2017-12-22T17:37:40.872Z,16.77
2017-12-22T17:40:08.383Z,14.93
2017-12-22T17:42:35.919Z,14.40
2017-12-22T17:45:03.411Z,14.30
2017-12-22T17:47:30.949Z,15.03
2017-12-22T17:49:58.477Z,15.40
2017-12-22T17:52:26.233Z,13.70
2017-12-22T17:54:53.737Z,13.07
2017-12-22T17:57:21.278Z,13.87
2017-12-22T17:59:48.813Z,14.00
2017-12-22T18:02:16.424Z,13.93
2017-12-22T18:04:43.943Z,13.53
2017-12-22T18:07:11.497Z,13.53
2017-12-22T18:09:39.078Z,15.00
2017-12-22T18:12:06.616Z,14.80
2017-12-22T18:14:34.104Z,13.30
2017-12-22T18:17:01.658Z,13.47
2017-12-22T18:19:29.180Z,14.33
2017-12-22T18:21:56.681Z,12.87
2017-12-22T18:24:27.200Z,14.20
2017-12-22T18:26:54.713Z,13.80
2017-12-22T18:29:22.232Z,14.40
2017-12-22T18:31:49.853Z,12.90
2017-12-22T18:34:17.720Z,14.60
2017-12-22T18:36:46.272Z,13.20
2017-12-22T18:39:14.287Z,12.80
2017-12-22T18:41:42.167Z,13.87
2017-12-22T18:44:09.756Z,13.20
2017-12-22T18:49:34.254Z,13.87
2017-12-22T18:52:01.817Z,12.40
2017-12-22T18:54:29.492Z,12.07
2017-12-22T18:56:57.181Z,12.33
2017-12-22T18:59:24.765Z,13.03
2017-12-22T19:01:53.491Z,12.13
2017-12-22T19:04:24.957Z,12.50
2017-12-22T19:06:52.800Z,10.93
2017-12-22T19:09:21.859Z,12.27
2017-12-22T19:11:49.470Z,12.07
2017-12-22T19:14:17.966Z,11.10
2017-12-22T19:16:47.056Z,11.00
2017-12-22T19:19:14.985Z,10.93
2017-12-22T19:21:42.923Z,11.77
2017-12-22T19:24:10.445Z,12.20
2017-12-22T19:26:39.845Z,11.83
2017-12-22T19:29:07.337Z,11.67
2017-12-22T19:31:34.841Z,11.53
2017-12-22T19:34:02.354Z,11.60
2017-12-22T19:36:30.844Z,10.50
2017-12-22T19:38:58.984Z,11.73
2017-12-22T19:41:26.500Z,11.83
2017-12-22T19:43:55.101Z,11.63
2017-12-22T19:46:23.926Z,11.40
2017-12-22T19:48:51.416Z,11.00
2017-12-22T19:51:19.054Z,11.00
2017-12-22T19:53:47.389Z,10.50
2017-12-22T19:56:15.492Z,12.13
2017-12-22T19:58:44.166Z,11.17
2017-12-22T20:01:11.763Z,10.60
2017-12-22T20:03:39.414Z,10.27
2017-12-22T20:06:07.043Z,9.70
2017-12-22T20:08:34.975Z,9.40
2017-12-22T20:11:02.511Z,10.23
2017-12-22T20:13:30.219Z,9.43
2017-12-22T20:15:57.932Z,9.37
2017-12-22T20:18:26.441Z,9.37
2017-12-22T20:20:56.639Z,9.17
2017-12-22T20:23:24.272Z,9.80
2017-12-22T20:25:51.897Z,9.83
2017-12-22T20:28:20.350Z,11.47
2017-12-22T20:30:47.888Z,10.17
2017-12-22T20:33:15.843Z,10.47
2017-12-22T20:41:36.552Z,11.57
2017-12-22T20:44:04.790Z,10.50
2017-12-22T20:52:21.706Z,11.40
2017-12-22T20:54:49.229Z,12.00
2017-12-22T20:57:16.836Z,10.13
2017-12-22T20:59:44.396Z,10.70
2017-12-22T21:02:12.032Z,11.70
2017-12-22T21:04:39.556Z,11.37
2017-12-22T21:07:07.129Z,11.57
2017-12-22T21:09:34.640Z,11.30
2017-12-22T21:12:02.116Z,11.80
2017-12-22T21:14:30.830Z,11.73
2017-12-22T21:16:58.308Z,12.20
2017-12-22T21:19:25.805Z,11.70
2017-12-22T21:21:53.363Z,11.50
2017-12-22T21:30:26.342Z,12.63
2017-12-22T21:33:10.360Z,11.73
2017-12-22T21:35:37.888Z,11.90
2017-12-22T21:44:10.524Z,10.90
2017-12-22T21:46:45.496Z,12.20
2017-12-22T21:49:14.903Z,11.30
2017-12-22T21:51:42.824Z,10.30
2017-12-22T21:54:10.651Z,11.73
2017-12-22T21:56:43.881Z,10.80
2017-12-22T21:59:12.547Z,12.03
2017-12-22T22:01:40.576Z,11.67
2017-12-22T22:04:09.481Z,12.07
2017-12-22T22:06:37.032Z,10.70
2017-12-22T22:09:04.555Z,11.80
2017-12-22T22:11:32.322Z,11.47
2017-12-22T22:14:00.165Z,11.00
2017-12-22T22:16:28.360Z,10.03
2017-12-22T22:18:55.928Z,10.20
2017-12-22T22:21:32.062Z,10.60
2017-12-22T22:23:59.572Z,11.00
2017-12-22T22:26:27.041Z,11.17
2017-12-22T22:28:54.823Z,10.67
2017-12-22T22:31:22.364Z,11.37
2017-12-22T22:33:49.850Z,10.30
2017-12-22T22:36:17.334Z,11.27
2017-12-22T22:38:44.809Z,11.50
2017-12-22T22:41:12.336Z,11.07
2017-12-22T22:43:39.834Z,11.20
2017-12-22T22:46:07.294Z,11.10
2017-12-22T22:48:34.880Z,10.50
2017-12-22T22:51:02.369Z,12.10
2017-12-22T22:53:29.918Z,11.10
2017-12-22T22:55:57.773Z,11.53
2017-12-22T22:58:25.300Z,12.03
2017-12-22T23:00:52.825Z,12.13
2017-12-22T23:03:20.361Z,11.33
2017-12-22T23:05:47.847Z,12.90
2017-12-22T23:08:15.582Z,11.40
2017-12-22T23:10:43.463Z,12.20
2017-12-22T23:13:10.971Z,11.53
2017-12-22T23:15:39.858Z,12.33
2017-12-22T23:18:07.337Z,11.00
2017-12-22T23:20:35.968Z,12.13
2017-12-22T23:23:03.481Z,13.10
2017-12-22T23:25:31.009Z,13.30
2017-12-22T23:27:58.568Z,12.63
2017-12-22T23:30:26.491Z,12.00
2017-12-22T23:32:54.002Z,12.43
2017-12-22T23:35:21.830Z,12.20
2017-12-22T23:37:49.411Z,10.97
2017-12-22T23:40:17.008Z,11.47
2017-12-22T23:42:44.518Z,12.60
2017-12-22T23:45:12.174Z,11.80
2017-12-22T23:47:39.667Z,11.80
2017-12-22T23:50:07.172Z,11.37
2017-12-22T23:52:34.672Z,12.23
2017-12-22T23:55:02.285Z,12.20
2017-12-22T23:57:29.814Z,11.80
2017-12-22T23:59:57.440Z,11.50
